Seymour, Illinois
Current Conditions -  °F | °C
As of 3:23 PM on Sunday 23 Nov 2014 (Local Time) from KCMI Reporting Station
Light Rain Light Rain  
Wind Chill: 51°   Ceiling: 400
Heat Index: 51°   Visibility: 2.5mi
Dew Point: 50°   Wind: 14mph
Humidity: 96%   Direction: 130°SE
Pressure: 29.44"   Gusts: NA
Location:  40.11°N, 88.43°W
Report Text: KCMI 232123Z 13012KT 2 1/2SM -RA BR OVC004 11/10 A2944 RMK AO2 P0003 T01060100 $
Loading
Personal Weather Stations






























Interactive Weather Map New forecast layout! Learn more

10-Day Weather Forecast

Advertisements
Track Severe Weather on mobile